Time;durP1;ratioP1;P1;durP2;ratioP2;P2;SDS_P1;SDS_P2;PMS_P1;PMS_P2;Temp;Humidity;BMP_temperature;BMP_pressure;BME280_temperature;BME280_humidity;BME280_pressure;Samples;Min_cycle;Max_cycle;Signal;HPM_P1;HPM_P2
2023/10/23 00:01:53;;;;;;;14.77;3.80;;;34.70;27.70;;;;;;5028937;28;20017;-65
2023/10/23 00:04:19;;;;;;;14.45;2.70;;;34.50;27.70;;;;;;5029167;28;20048;-67
2023/10/23 00:06:46;;;;;;;24.30;3.40;;;34.40;27.90;;;;;;5029024;28;20044;-66
2023/10/23 00:09:13;;;;;;;20.30;3.50;;;34.30;28.10;;;;;;5030415;28;20054;-66
2023/10/23 00:11:40;;;;;;;14.20;3.15;;;34.10;28.10;;;;;;5034428;28;20067;-66
2023/10/23 00:14:07;;;;;;;15.45;3.42;;;34.10;28.40;;;;;;5025630;28;20051;-65
2023/10/23 00:16:33;;;;;;;16.08;3.30;;;34.00;28.30;;;;;;5032144;28;20047;-68
2023/10/23 00:19:00;;;;;;;22.20;3.40;;;33.90;28.40;;;;;;5045094;28;20125;-66
2023/10/23 00:21:26;;;;;;;10.98;3.20;;;33.80;28.50;;;;;;5029821;28;20040;-65
2023/10/23 00:23:53;;;;;;;37.40;3.85;;;33.70;28.90;;;;;;5029075;28;20130;-68
2023/10/23 00:26:19;;;;;;;17.65;3.72;;;33.60;29.10;;;;;;5028628;28;20045;-66
2023/10/23 00:28:47;;;;;;;19.60;3.78;;;33.40;29.40;;;;;;5025647;28;20050;-64
2023/10/23 00:31:14;;;;;;;14.02;4.28;;;33.30;29.50;;;;;;5031733;28;20526;-66
2023/10/23 00:33:41;;;;;;;20.77;4.68;;;33.30;29.90;;;;;;5032737;28;20531;-65
2023/10/23 00:36:08;;;;;;;19.75;4.40;;;33.20;30.00;;;;;;5029457;28;20042;-65
2023/10/23 00:38:35;;;;;;;22.08;4.50;;;33.00;30.00;;;;;;5029765;28;20159;-66
2023/10/23 00:41:01;;;;;;;16.25;4.20;;;33.00;30.70;;;;;;5032976;28;20543;-65
2023/10/23 00:43:28;;;;;;;15.75;3.72;;;32.80;31.60;;;;;;5028141;28;20052;-65
2023/10/23 00:45:59;;;;;;;16.60;3.75;;;32.70;32.40;;;;;;5038672;28;20118;-64
2023/10/23 00:48:27;;;;;;;17.48;4.20;;;32.60;32.90;;;;;;5024531;28;20113;-68
2023/10/23 00:51:01;;;;;;;21.95;4.32;;;32.50;33.30;;;;;;5026443;28;20059;-67
2023/10/23 00:53:32;;;;;;;25.10;3.63;;;32.30;33.30;;;;;;5027218;28;20078;-68
2023/10/23 00:55:59;;;;;;;14.02;3.60;;;32.20;33.60;;;;;;5030739;28;20058;-68
2023/10/23 00:58:26;;;;;;;16.00;3.28;;;32.10;33.90;;;;;;5029082;28;20073;-66
2023/10/23 01:00:54;;;;;;;16.33;3.50;;;32.00;34.40;;;;;;5031646;28;20513;-68
2023/10/23 01:03:21;;;;;;;24.30;4.38;;;31.80;34.80;;;;;;5039466;28;20052;-69
2023/10/23 01:05:49;;;;;;;28.25;3.65;;;31.70;35.20;;;;;;5037027;28;20081;-69
2023/10/23 01:08:15;;;;;;;24.67;6.15;;;31.50;35.00;;;;;;5029452;28;20102;-69
2023/10/23 01:10:42;;;;;;;23.23;4.97;;;31.50;35.30;;;;;;5029541;28;20106;-68
2023/10/23 01:13:09;;;;;;;19.85;4.70;;;31.30;35.20;;;;;;5033249;28;20149;-67
2023/10/23 01:15:36;;;;;;;20.27;4.50;;;31.30;35.40;;;;;;5032209;28;20107;-67
2023/10/23 01:18:06;;;;;;;12.05;4.50;;;31.20;35.30;;;;;;5032684;28;20054;-68
2023/10/23 01:20:32;;;;;;;24.23;7.07;;;31.20;35.60;;;;;;5034465;28;20061;-68
2023/10/23 01:23:00;;;;;;;20.80;5.38;;;31.10;35.80;;;;;;5043837;28;20074;-67
2023/10/23 01:25:28;;;;;;;18.13;3.38;;;31.00;36.00;;;;;;5038183;28;20054;-65
2023/10/23 01:27:55;;;;;;;33.88;4.65;;;30.90;36.10;;;;;;5034555;28;20518;-65
2023/10/23 01:30:22;;;;;;;15.18;3.97;;;30.90;36.30;;;;;;5038234;28;20055;-66
2023/10/23 01:32:49;;;;;;;16.83;3.78;;;30.90;36.60;;;;;;5030657;28;20518;-66
2023/10/23 01:35:15;;;;;;;27.15;3.50;;;30.70;36.80;;;;;;5036912;28;20067;-67
2023/10/23 01:37:41;;;;;;;18.60;4.28;;;30.70;36.70;;;;;;5031672;28;20105;-65
2023/10/23 01:40:09;;;;;;;16.67;3.35;;;30.70;36.80;;;;;;5036227;28;20134;-66
2023/10/23 01:42:35;;;;;;;13.45;3.33;;;30.60;36.30;;;;;;5036536;28;20054;-65
2023/10/23 01:45:02;;;;;;;19.15;3.50;;;30.60;36.60;;;;;;5035544;28;20050;-65
2023/10/23 01:47:28;;;;;;;17.65;3.70;;;30.50;36.80;;;;;;5034064;28;20058;-65
2023/10/23 01:49:55;;;;;;;21.55;3.25;;;30.40;36.30;;;;;;5038186;28;20130;-65
2023/10/23 01:52:21;;;;;;;14.80;2.78;;;30.40;36.70;;;;;;5031261;28;20135;-66
2023/10/23 01:54:50;;;;;;;12.85;3.10;;;30.40;35.90;;;;;;5034784;28;20107;-65
2023/10/23 01:57:17;;;;;;;19.90;6.95;;;30.40;35.70;;;;;;5032850;28;20060;-65
2023/10/23 01:59:43;;;;;;;14.73;6.20;;;30.40;36.10;;;;;;5034864;28;20132;-65
2023/10/23 02:02:10;;;;;;;12.23;3.92;;;30.30;35.90;;;;;;5038725;28;20061;-63
2023/10/23 02:04:39;;;;;;;13.30;3.60;;;30.20;35.70;;;;;;5038307;28;20056;-65
2023/10/23 02:07:06;;;;;;;14.82;3.30;;;30.20;35.60;;;;;;5039403;28;20060;-64
2023/10/23 02:09:32;;;;;;;13.85;3.70;;;30.20;35.40;;;;;;5036432;28;20066;-65
2023/10/23 02:12:00;;;;;;;14.23;3.90;;;30.10;35.90;;;;;;5042756;28;20054;-64
2023/10/23 02:14:27;;;;;;;18.77;3.58;;;30.00;36.20;;;;;;5039927;28;20065;-63
2023/10/23 02:16:54;;;;;;;10.35;2.95;;;30.00;36.00;;;;;;5033197;28;20155;-63
2023/10/23 02:19:20;;;;;;;13.15;3.58;;;29.90;35.70;;;;;;5035252;28;20429;-64
2023/10/23 02:21:49;;;;;;;25.80;4.75;;;29.80;36.30;;;;;;5034501;28;20057;-63
2023/10/23 02:24:17;;;;;;;31.65;4.35;;;29.70;36.70;;;;;;5031019;28;20058;-64
2023/10/23 02:26:43;;;;;;;24.27;4.50;;;29.60;37.00;;;;;;5032363;28;20059;-63
2023/10/23 02:29:10;;;;;;;26.83;3.88;;;29.50;36.70;;;;;;5039828;28;20062;-64
2023/10/23 02:31:38;;;;;;;34.10;4.57;;;29.40;36.20;;;;;;5041255;28;20146;-66
2023/10/23 02:34:05;;;;;;;29.38;4.10;;;29.40;35.70;;;;;;5039106;28;20064;-69
2023/10/23 02:37:25;;;;;;;19.77;2.93;;;29.00;34.50;;;;;;5064139;28;20461;-58
2023/10/23 02:39:51;;;;;;;28.25;3.90;;;29.00;35.10;;;;;;5063800;28;20479;-58
2023/10/23 02:42:18;;;;;;;20.65;3.13;;;29.00;35.20;;;;;;5064605;28;20063;-57
2023/10/23 02:44:44;;;;;;;25.38;3.90;;;28.90;35.90;;;;;;5062953;28;20502;-55
2023/10/23 02:47:11;;;;;;;23.45;3.88;;;28.80;36.40;;;;;;5064532;28;20153;-56
2023/10/23 02:49:38;;;;;;;22.85;4.32;;;28.70;36.20;;;;;;5066541;28;20137;-56
2023/10/23 02:52:04;;;;;;;23.13;3.28;;;28.60;35.90;;;;;;5064787;28;20466;-56
2023/10/23 02:54:31;;;;;;;16.45;2.65;;;28.60;36.10;;;;;;5068660;28;20066;-57
2023/10/23 02:56:57;;;;;;;19.77;2.90;;;28.50;35.70;;;;;;5071676;28;20081;-55
2023/10/23 02:59:24;;;;;;;19.20;3.17;;;28.40;35.80;;;;;;5063948;28;20065;-58
2023/10/23 03:01:51;;;;;;;22.23;3.53;;;28.30;35.80;;;;;;5064164;28;20097;-58
2023/10/23 03:04:17;;;;;;;29.20;3.10;;;28.30;35.80;;;;;;5063935;28;20124;-57
2023/10/23 03:06:44;;;;;;;29.73;3.60;;;28.20;36.20;;;;;;5064224;28;20123;-55
2023/10/23 03:09:11;;;;;;;18.98;3.63;;;28.00;36.70;;;;;;5063585;28;20594;-57
2023/10/23 03:11:37;;;;;;;34.75;4.70;;;27.90;37.30;;;;;;5063954;28;20096;-58
2023/10/23 03:14:04;;;;;;;31.38;4.40;;;27.90;38.70;;;;;;5064177;28;20418;-61
2023/10/23 03:16:30;;;;;;;51.17;5.97;;;27.80;39.50;;;;;;5063861;28;20077;-55
2023/10/23 03:18:57;;;;;;;36.83;3.83;;;27.70;40.70;;;;;;5064076;28;20075;-59
2023/10/23 03:21:23;;;;;;;69.13;6.25;;;27.50;41.60;;;;;;5063743;28;20073;-59
2023/10/23 03:23:51;;;;;;;39.97;6.03;;;27.30;43.20;;;;;;5064425;28;20072;-59
2023/10/23 03:26:17;;;;;;;34.10;4.15;;;27.20;43.90;;;;;;5064154;28;20534;-58
2023/10/23 03:28:44;;;;;;;36.58;4.53;;;27.10;44.30;;;;;;5063209;28;20073;-60
2023/10/23 03:31:11;;;;;;;27.08;4.30;;;27.00;44.70;;;;;;5063873;28;20127;-58
2023/10/23 03:33:37;;;;;;;26.60;3.80;;;26.90;45.20;;;;;;5063395;28;20182;-58
2023/10/23 03:36:04;;;;;;;24.98;4.30;;;26.80;45.60;;;;;;5062949;28;20202;-57
2023/10/23 03:38:30;;;;;;;28.45;4.30;;;26.70;46.10;;;;;;5063543;28;20123;-58
2023/10/23 03:41:01;;;;;;;40.10;5.32;;;26.60;46.60;;;;;;5063389;28;20575;-59
2023/10/23 03:43:27;;;;;;;34.20;4.55;;;26.60;47.10;;;;;;5062966;28;20457;-57
2023/10/23 03:45:54;;;;;;;37.72;4.50;;;26.40;47.50;;;;;;5063386;28;20089;-57
2023/10/23 03:48:21;;;;;;;22.88;4.55;;;26.30;47.90;;;;;;5051767;28;20458;-58
2023/10/23 03:50:47;;;;;;;34.65;5.50;;;26.30;48.30;;;;;;5050190;28;20130;-59
2023/10/23 03:53:14;;;;;;;33.80;5.00;;;26.20;48.50;;;;;;5050178;28;20079;-57
2023/10/23 03:55:41;;;;;;;40.13;5.80;;;26.20;48.70;;;;;;5048411;28;20074;-57
2023/10/23 03:58:07;;;;;;;43.20;5.68;;;26.10;48.80;;;;;;5054388;28;20545;-57
2023/10/23 04:00:34;;;;;;;40.20;5.07;;;26.10;49.10;;;;;;5064464;28;20096;-58
2023/10/23 04:03:00;;;;;;;27.60;4.38;;;26.00;49.10;;;;;;5048594;28;20628;-57
2023/10/23 04:05:26;;;;;;;20.73;3.97;;;25.90;49.10;;;;;;5051945;28;20092;-56
2023/10/23 04:07:53;;;;;;;20.90;3.70;;;25.90;49.40;;;;;;5048646;28;20161;-56
2023/10/23 04:10:19;;;;;;;14.15;3.55;;;25.90;49.60;;;;;;5049590;28;20207;-57
2023/10/23 04:12:46;;;;;;;19.80;3.78;;;25.80;49.40;;;;;;5047850;28;20570;-57
2023/10/23 04:15:12;;;;;;;17.95;3.55;;;25.80;49.50;;;;;;5049268;28;20081;-58
2023/10/23 04:17:39;;;;;;;10.68;3.53;;;25.70;49.70;;;;;;5048967;28;20121;-55
2023/10/23 04:20:06;;;;;;;10.45;3.25;;;25.70;49.70;;;;;;5047808;28;20082;-55
2023/10/23 04:22:33;;;;;;;12.55;3.50;;;25.60;49.50;;;;;;5048463;28;20079;-56
2023/10/23 04:24:59;;;;;;;14.52;3.85;;;25.60;49.80;;;;;;5046676;28;20078;-57
2023/10/23 04:27:25;;;;;;;19.13;3.00;;;25.50;50.10;;;;;;5048542;28;20491;-59
2023/10/23 04:29:53;;;;;;;13.52;3.15;;;25.40;50.10;;;;;;5048757;28;20570;-58
2023/10/23 04:32:19;;;;;;;18.45;3.55;;;25.40;49.90;;;;;;5048238;28;20076;-59
2023/10/23 04:34:46;;;;;;;16.42;3.50;;;25.40;49.80;;;;;;5047946;28;20385;-58
2023/10/23 04:37:12;;;;;;;20.42;3.55;;;25.30;49.50;;;;;;5048112;28;20550;-56
2023/10/23 04:39:39;;;;;;;17.08;3.75;;;25.30;49.00;;;;;;5048201;28;20144;-56
2023/10/23 04:42:05;;;;;;;19.13;3.25;;;25.30;48.40;;;;;;5048201;28;20168;-58
2023/10/23 04:44:33;;;;;;;14.82;3.30;;;25.40;48.90;;;;;;5048908;28;20196;-56
2023/10/23 04:47:00;;;;;;;16.08;3.42;;;25.40;48.20;;;;;;5046817;28;20099;-57
2023/10/23 04:49:26;;;;;;;20.30;3.25;;;25.40;48.20;;;;;;5046301;28;20554;-57
2023/10/23 04:51:53;;;;;;;19.65;3.10;;;25.40;48.20;;;;;;5047800;28;20619;-58
2023/10/23 04:54:20;;;;;;;14.98;3.13;;;25.30;47.50;;;;;;5046847;28;20574;-56
2023/10/23 04:56:47;;;;;;;17.05;2.90;;;25.40;47.10;;;;;;5049601;28;20079;-55
2023/10/23 04:59:13;;;;;;;17.67;3.03;;;25.40;47.60;;;;;;5047804;28;20422;-59
2023/10/23 05:01:40;;;;;;;22.45;3.38;;;25.40;48.10;;;;;;5046323;28;20077;-59
2023/10/23 05:04:07;;;;;;;14.18;3.15;;;25.40;48.60;;;;;;5046997;28;20087;-58
2023/10/23 05:06:33;;;;;;;18.95;3.60;;;25.30;49.00;;;;;;5047672;28;20473;-57
2023/10/23 05:08:59;;;;;;;16.45;3.58;;;25.20;49.40;;;;;;5048008;28;20153;-58
2023/10/23 05:11:26;;;;;;;30.38;4.43;;;25.10;50.00;;;;;;5044221;28;20068;-56
2023/10/23 05:13:52;;;;;;;27.63;3.95;;;25.00;50.60;;;;;;5046153;28;20071;-57
2023/10/23 05:16:19;;;;;;;33.72;4.65;;;24.90;51.00;;;;;;5045716;28;20436;-60
2023/10/23 05:18:45;;;;;;;20.58;4.07;;;24.80;51.30;;;;;;5046958;28;20162;-56
2023/10/23 05:21:13;;;;;;;45.72;4.43;;;24.70;51.70;;;;;;5048373;28;20543;-58
2023/10/23 05:23:42;;;;;;;34.83;3.60;;;24.60;52.00;;;;;;5048762;28;20125;-58
2023/10/23 05:26:12;;;;;;;52.72;19.23;;;24.60;51.90;;;;;;5044006;28;20189;-59
2023/10/23 05:28:42;;;;;;;59.17;20.63;;;24.50;51.80;;;;;;5047305;28;20105;-57
2023/10/23 05:31:09;;;;;;;48.67;18.50;;;24.50;51.70;;;;;;5046005;28;20081;-56
2023/10/23 05:33:36;;;;;;;45.85;18.85;;;24.50;51.50;;;;;;5048681;28;20066;-56
2023/10/23 05:36:09;;;;;;;43.55;19.17;;;24.60;51.40;;;;;;5058870;28;20588;-55
2023/10/23 05:38:37;;;;;;;27.17;3.65;;;24.60;51.10;;;;;;5047483;28;20076;-54
2023/10/23 05:41:03;;;;;;;52.13;4.43;;;24.60;51.00;;;;;;5047039;28;20071;-59
2023/10/23 05:43:30;;;;;;;23.42;3.70;;;24.50;51.10;;;;;;5046139;28;20096;-54
2023/10/23 05:45:57;;;;;;;31.05;4.13;;;24.40;51.20;;;;;;5043413;28;20091;-56
2023/10/23 05:48:24;;;;;;;31.80;4.20;;;24.40;51.50;;;;;;5044567;28;20107;-55
2023/10/23 05:51:00;;;;;;;38.65;4.25;;;24.30;52.10;;;;;;5045934;28;20552;-59
2023/10/23 05:53:27;;;;;;;39.78;4.45;;;24.20;52.50;;;;;;5046296;28;20130;-57
2023/10/23 05:55:54;;;;;;;39.97;4.78;;;24.10;53.10;;;;;;5045190;28;20088;-57
2023/10/23 05:58:21;;;;;;;31.15;4.28;;;24.00;53.80;;;;;;5047243;28;20084;-59
2023/10/23 06:00:47;;;;;;;49.67;5.22;;;23.90;54.10;;;;;;5046615;28;20080;-59
2023/10/23 06:03:14;;;;;;;40.97;5.25;;;24.00;54.60;;;;;;5051360;28;20092;-57
2023/10/23 06:05:41;;;;;;;43.30;4.80;;;23.80;55.20;;;;;;5047329;28;20111;-56
2023/10/23 06:08:08;;;;;;;51.55;5.43;;;23.80;55.60;;;;;;5047478;28;20080;-59
2023/10/23 06:10:44;;;;;;;61.60;5.63;;;23.60;55.80;;;;;;5060227;28;20163;-60
2023/10/23 06:13:11;;;;;;;50.05;5.15;;;23.50;55.80;;;;;;5049083;28;20086;-56
2023/10/23 06:15:38;;;;;;;39.15;5.00;;;23.40;55.70;;;;;;5052902;28;20080;-59
2023/10/23 06:18:06;;;;;;;32.08;4.40;;;23.40;55.80;;;;;;5047477;28;20496;-57
2023/10/23 06:20:32;;;;;;;31.92;4.05;;;23.40;55.80;;;;;;5047054;28;20091;-56
2023/10/23 06:23:00;;;;;;;36.75;4.40;;;23.30;55.60;;;;;;5047165;28;20089;-57
2023/10/23 06:25:26;;;;;;;25.55;3.80;;;23.30;55.50;;;;;;5045805;28;20123;-56
2023/10/23 06:27:53;;;;;;;41.17;4.65;;;23.30;55.60;;;;;;5047162;28;20287;-59
2023/10/23 06:30:21;;;;;;;24.02;3.95;;;23.30;55.50;;;;;;5047004;28;21500;-59
2023/10/23 06:32:48;;;;;;;42.83;4.63;;;23.30;55.80;;;;;;5046796;28;20196;-58
2023/10/23 06:35:18;;;;;;;88.00;6.93;;;23.30;57.00;;;;;;5047172;28;20155;-60
2023/10/23 06:37:44;;;;;;;105.63;9.82;;;23.20;57.50;;;;;;5050861;28;20095;-58
2023/10/23 06:40:11;;;;;;;105.88;9.30;;;23.10;58.50;;;;;;5048319;28;20080;-55
2023/10/23 06:42:38;;;;;;;98.00;8.80;;;22.90;59.20;;;;;;5046602;28;20188;-55
2023/10/23 06:45:05;;;;;;;121.63;9.65;;;22.80;59.50;;;;;;5046696;28;20141;-57
2023/10/23 06:47:31;;;;;;;109.10;9.00;;;22.80;59.70;;;;;;5046689;28;20142;-58
2023/10/23 06:49:59;;;;;;;105.13;8.00;;;22.70;59.60;;;;;;5046903;28;20146;-60
2023/10/23 06:52:26;;;;;;;75.03;5.75;;;22.60;59.90;;;;;;5047326;28;20168;-55
2023/10/23 06:54:52;;;;;;;90.10;7.20;;;22.60;59.50;;;;;;5046358;28;20495;-57
2023/10/23 06:57:18;;;;;;;80.43;7.32;;;22.60;59.50;;;;;;5049463;28;20540;-58
2023/10/23 06:59:45;;;;;;;95.90;7.72;;;22.60;59.50;;;;;;5045004;28;20501;-58
2023/10/23 07:02:11;;;;;;;93.72;7.95;;;22.60;58.90;;;;;;5046405;28;20581;-54
2023/10/23 07:04:38;;;;;;;107.00;8.43;;;22.60;58.70;;;;;;5047399;28;20095;-56
2023/10/23 07:07:04;;;;;;;120.45;8.90;;;22.60;58.80;;;;;;5046929;28;20092;-54
2023/10/23 07:09:31;;;;;;;102.53;8.63;;;22.60;58.90;;;;;;5046380;28;20110;-57
2023/10/23 07:11:57;;;;;;;99.28;7.88;;;22.60;58.90;;;;;;5046289;28;20133;-55
2023/10/23 07:14:24;;;;;;;99.75;7.80;;;22.60;59.30;;;;;;5046014;28;20566;-57
2023/10/23 07:16:50;;;;;;;133.68;10.70;;;22.60;58.30;;;;;;5046565;28;20083;-57
2023/10/23 07:19:17;;;;;;;108.30;10.07;;;22.60;58.00;;;;;;5046504;28;20173;-55
2023/10/23 07:21:44;;;;;;;159.95;12.63;;;22.60;57.40;;;;;;5045802;28;20168;-58
2023/10/23 07:24:10;;;;;;;182.82;13.23;;;22.50;57.10;;;;;;5050316;28;20265;-56
2023/10/23 07:26:37;;;;;;;191.52;13.35;;;22.50;56.80;;;;;;5047998;28;20092;-56
2023/10/23 07:29:03;;;;;;;217.30;14.25;;;22.50;56.80;;;;;;5049021;28;20081;-56
2023/10/23 07:31:30;;;;;;;146.00;11.35;;;22.50;56.90;;;;;;5050246;28;20080;-57
2023/10/23 07:33:57;;;;;;;194.00;12.95;;;22.60;56.90;;;;;;5050365;28;20088;-58
2023/10/23 07:36:24;;;;;;;279.60;18.30;;;22.60;56.60;;;;;;5048941;28;20179;-55
2023/10/23 07:38:50;;;;;;;391.33;25.63;;;22.60;56.40;;;;;;5050840;28;20094;-58
2023/10/23 07:41:16;;;;;;;157.23;11.30;;;22.60;56.30;;;;;;5049420;28;20102;-55
2023/10/23 07:43:43;;;;;;;211.75;12.52;;;22.60;56.20;;;;;;5049079;28;20090;-55
2023/10/23 07:46:11;;;;;;;151.20;11.07;;;22.60;56.00;;;;;;5048635;28;20479;-55
2023/10/23 07:48:37;;;;;;;214.32;14.55;;;22.60;56.00;;;;;;5049367;28;20082;-53
2023/10/23 07:51:04;;;;;;;177.48;12.85;;;22.60;55.90;;;;;;5050128;28;20073;-55
2023/10/23 07:53:32;;;;;;;201.68;14.23;;;22.60;55.70;;;;;;5048990;28;20110;-56
2023/10/23 07:55:59;;;;;;;213.85;13.95;;;22.60;55.40;;;;;;5046668;28;20520;-54
2023/10/23 07:58:26;;;;;;;209.27;14.48;;;22.70;55.00;;;;;;5050066;28;20529;-53
2023/10/23 08:01:04;;;;;;;252.52;15.90;;;22.70;54.80;;;;;;5049061;28;20146;-57
2023/10/23 08:03:31;;;;;;;220.05;16.20;;;22.70;54.60;;;;;;5049194;28;20076;-53
2023/10/23 08:05:58;;;;;;;186.73;12.65;;;22.70;54.70;;;;;;5048216;28;20103;-55
2023/10/23 08:08:24;;;;;;;166.82;12.77;;;22.70;55.20;;;;;;5050015;28;20134;-57
2023/10/23 08:10:51;;;;;;;105.20;9.15;;;22.60;55.40;;;;;;5048657;28;20134;-58
2023/10/23 08:13:17;;;;;;;98.35;8.65;;;22.60;56.10;;;;;;5049549;28;20108;-59
2023/10/23 08:15:44;;;;;;;96.10;7.20;;;22.60;55.30;;;;;;5048400;28;20167;-55
2023/10/23 08:18:10;;;;;;;75.25;6.35;;;22.60;55.00;;;;;;5047462;28;20099;-55
2023/10/23 08:20:36;;;;;;;72.22;5.50;;;22.60;55.40;;;;;;5048377;28;20087;-54
2023/10/23 08:23:03;;;;;;;71.63;6.35;;;22.60;55.00;;;;;;5049424;28;20417;-54
2023/10/23 08:25:29;;;;;;;131.45;11.20;;;22.60;55.20;;;;;;5047001;28;20112;-56
2023/10/23 08:27:56;;;;;;;100.20;8.63;;;22.60;55.80;;;;;;5047984;28;20085;-56
2023/10/23 08:30:22;;;;;;;109.05;8.57;;;22.50;56.00;;;;;;5049681;28;20092;-57
2023/10/23 08:32:49;;;;;;;92.47;7.80;;;22.40;55.90;;;;;;5048802;28;20130;-57
2023/10/23 08:35:16;;;;;;;130.75;9.95;;;22.40;55.90;;;;;;5047986;28;20080;-58
2023/10/23 08:37:43;;;;;;;121.32;10.65;;;22.40;56.10;;;;;;5048233;28;20080;-58
2023/10/23 08:40:10;;;;;;;126.10;9.82;;;22.40;56.30;;;;;;5047905;28;20142;-56
2023/10/23 08:42:36;;;;;;;103.43;8.55;;;22.20;56.80;;;;;;5047485;28;20080;-56
2023/10/23 08:45:03;;;;;;;113.47;8.98;;;22.30;56.60;;;;;;5044878;28;20541;-56
2023/10/23 08:47:30;;;;;;;96.43;8.73;;;22.30;56.90;;;;;;5047394;28;20104;-55
2023/10/23 08:50:01;;;;;;;92.78;8.25;;;22.20;56.90;;;;;;5048517;28;20447;-53
2023/10/23 08:52:44;;;;;;;90.20;7.78;;;22.20;56.90;;;;;;5049306;28;20524;-55
2023/10/23 08:55:14;;;;;;;86.82;8.52;;;22.20;57.10;;;;;;5047392;28;20487;-55
2023/10/23 08:57:53;;;;;;;56.90;6.65;;;22.20;57.10;;;;;;5047210;28;20080;-55
2023/10/23 09:00:24;;;;;;;74.43;6.10;;;22.10;56.90;;;;;;5050486;28;20102;-57
2023/10/23 09:02:51;;;;;;;56.65;5.38;;;22.10;56.80;;;;;;5048048;28;20095;-54
2023/10/23 09:05:19;;;;;;;41.08;4.55;;;22.00;56.50;;;;;;5048121;28;20104;-57
2023/10/23 09:07:46;;;;;;;49.85;5.50;;;22.10;56.40;;;;;;5048228;28;20110;-56
2023/10/23 09:10:12;;;;;;;57.65;5.30;;;22.10;56.50;;;;;;5047239;28;20143;-55
2023/10/23 09:12:43;;;;;;;52.80;6.00;;;22.00;56.40;;;;;;5047296;28;20440;-57
2023/10/23 09:15:17;;;;;;;70.50;6.30;;;21.90;56.40;;;;;;5047626;28;20089;-58
2023/10/23 09:17:45;;;;;;;108.35;9.60;;;22.00;56.60;;;;;;5047368;28;20080;-56
2023/10/23 09:20:23;;;;;;;150.20;10.23;;;22.00;56.50;;;;;;5048309;28;20191;-57
2023/10/23 09:22:52;;;;;;;153.65;12.57;;;21.90;56.60;;;;;;5047615;28;20129;-52
2023/10/23 09:25:24;;;;;;;170.60;13.90;;;21.90;56.40;;;;;;5045869;28;20401;-56
2023/10/23 09:27:52;;;;;;;180.23;13.55;;;22.00;56.60;;;;;;5045675;28;20080;-56
2023/10/23 09:30:22;;;;;;;141.95;11.85;;;22.00;56.60;;;;;;5047948;28;20126;-58
2023/10/23 09:32:53;;;;;;;160.70;13.25;;;22.00;56.90;;;;;;5047740;28;20085;-55
2023/10/23 09:35:22;;;;;;;157.13;11.25;;;22.00;56.90;;;;;;5045705;28;20075;-56
2023/10/23 09:37:49;;;;;;;175.95;12.82;;;22.00;56.90;;;;;;5046790;28;20106;-56
2023/10/23 09:40:18;;;;;;;141.60;11.73;;;22.00;57.10;;;;;;5045412;28;20162;-55
2023/10/23 09:42:45;;;;;;;103.40;9.38;;;22.00;56.70;;;;;;5046322;28;20095;-54
2023/10/23 09:45:13;;;;;;;80.32;6.25;;;22.00;56.40;;;;;;5046521;28;20088;-55
2023/10/23 09:47:40;;;;;;;83.57;6.60;;;22.00;55.90;;;;;;5047627;28;20560;-55
2023/10/23 09:50:07;;;;;;;88.40;7.28;;;22.00;55.80;;;;;;5047292;28;20084;-55
2023/10/23 09:52:35;;;;;;;68.30;5.80;;;22.00;55.90;;;;;;5047885;28;20103;-54
2023/10/23 09:55:09;;;;;;;62.45;8.80;;;22.00;56.00;;;;;;5047463;28;20154;-56
2023/10/23 09:57:40;;;;;;;52.47;8.27;;;22.00;56.00;;;;;;5047003;28;20210;-59
2023/10/23 10:00:15;;;;;;;60.63;5.18;;;22.10;56.00;;;;;;5049100;28;20084;-55
2023/10/23 10:02:59;;;;;;;59.15;4.20;;;22.10;55.90;;;;;;5049130;28;20540;-56
2023/10/23 10:05:44;;;;;;;26.83;3.78;;;22.10;55.90;;;;;;5045438;28;20524;-52
2023/10/23 10:08:16;;;;;;;42.60;4.00;;;22.20;56.10;;;;;;5045671;28;20552;-53
2023/10/23 10:10:43;;;;;;;62.00;5.65;;;22.20;56.00;;;;;;5046851;28;21161;-54
2023/10/23 10:13:13;;;;;;;69.30;5.15;;;22.10;55.60;;;;;;5049829;28;20068;-55
2023/10/23 10:15:41;;;;;;;92.50;6.55;;;22.10;55.60;;;;;;5047319;28;20155;-56
2023/10/23 10:18:09;;;;;;;96.88;7.22;;;22.10;55.40;;;;;;5048898;28;20085;-55
2023/10/23 10:20:37;;;;;;;66.82;5.65;;;22.10;55.40;;;;;;5046225;28;20088;-58
2023/10/23 10:23:08;;;;;;;64.32;5.78;;;22.10;55.30;;;;;;5046680;28;20141;-56
2023/10/23 10:25:37;;;;;;;70.10;6.90;;;22.10;55.40;;;;;;5045958;28;20096;-56
2023/10/23 10:28:06;;;;;;;84.18;6.38;;;22.10;55.50;;;;;;5045195;28;20103;-57
2023/10/23 10:30:49;;;;;;;66.65;5.38;;;22.10;55.70;;;;;;5047251;28;20167;-57
2023/10/23 10:33:24;;;;;;;70.50;5.68;;;22.00;55.70;;;;;;5045131;28;20088;-53
2023/10/23 10:35:52;;;;;;;37.70;4.40;;;22.10;55.90;;;;;;5045820;28;20107;-57
2023/10/23 10:38:26;;;;;;;35.03;3.90;;;22.10;56.10;;;;;;5047660;28;20080;-56
2023/10/23 10:41:15;;;;;;;30.08;3.03;;;22.00;56.20;;;;;;5046662;28;20160;-55
2023/10/23 10:43:43;;;;;;;26.17;2.60;;;22.00;56.30;;;;;;5046310;28;20523;-56
2023/10/23 10:46:23;;;;;;;20.48;2.95;;;22.00;56.50;;;;;;5046073;28;20095;-59
2023/10/23 10:48:51;;;;;;;14.73;3.00;;;22.00;56.70;;;;;;5048376;28;21380;-57
2023/10/23 10:51:22;;;;;;;19.60;2.78;;;21.90;56.80;;;;;;5045340;28;20083;-58
2023/10/23 10:53:58;;;;;;;17.90;3.22;;;21.90;57.00;;;;;;5051320;28;20091;-56
2023/10/23 10:56:25;;;;;;;27.00;3.20;;;21.90;57.00;;;;;;5044610;28;20120;-56
2023/10/23 10:58:51;;;;;;;18.25;2.58;;;21.90;57.30;;;;;;5049408;28;20088;-55
2023/10/23 11:01:22;;;;;;;22.05;2.80;;;21.80;57.40;;;;;;5050272;28;20495;-55
2023/10/23 11:03:49;;;;;;;16.23;2.63;;;21.80;57.50;;;;;;5053561;28;20108;-55
2023/10/23 11:06:16;;;;;;;24.77;2.85;;;21.70;57.80;;;;;;5048472;28;20174;-56
2023/10/23 11:08:42;;;;;;;13.27;2.33;;;21.60;57.90;;;;;;5050677;28;20162;-57
2023/10/23 11:11:09;;;;;;;20.35;3.08;;;21.70;58.00;;;;;;5052878;28;20076;-58
2023/10/23 11:13:36;;;;;;;12.32;2.30;;;21.70;58.10;;;;;;5050132;28;20106;-55
2023/10/23 11:16:04;;;;;;;9.30;2.03;;;21.70;58.20;;;;;;5050557;28;20085;-56
2023/10/23 11:18:31;;;;;;;11.25;2.20;;;21.70;58.40;;;;;;5050182;28;20426;-52
2023/10/23 11:20:59;;;;;;;15.55;2.83;;;21.70;58.50;;;;;;5049866;28;20627;-55
2023/10/23 11:23:29;;;;;;;12.20;2.40;;;21.70;58.70;;;;;;5049783;28;20099;-55
2023/10/23 11:25:55;;;;;;;15.30;2.70;;;21.70;58.90;;;;;;5052366;28;20150;-58
2023/10/23 11:28:22;;;;;;;16.27;2.20;;;21.70;59.40;;;;;;5047840;28;20080;-54
2023/10/23 11:30:54;;;;;;;17.27;2.85;;;21.70;59.70;;;;;;5050385;28;20111;-56
2023/10/23 11:33:20;;;;;;;13.00;2.20;;;21.70;60.10;;;;;;5048374;28;20444;-57
2023/10/23 11:35:47;;;;;;;10.93;2.03;;;21.70;60.50;;;;;;5049370;28;20184;-58
2023/10/23 11:38:15;;;;;;;6.95;1.73;;;21.60;60.60;;;;;;5049445;28;20081;-57
2023/10/23 11:40:43;;;;;;;8.95;2.13;;;21.60;60.90;;;;;;5048962;28;20128;-56
2023/10/23 11:43:10;;;;;;;9.05;1.70;;;21.60;61.00;;;;;;5049486;28;20163;-56
2023/10/23 11:45:39;;;;;;;10.07;1.90;;;21.70;61.30;;;;;;5047992;28;20196;-56
2023/10/23 11:48:06;;;;;;;7.25;1.75;;;21.60;61.40;;;;;;5049931;28;20083;-57
2023/10/23 11:50:35;;;;;;;6.10;2.00;;;21.60;61.50;;;;;;5049267;28;20084;-57
2023/10/23 11:53:05;;;;;;;7.32;2.00;;;21.60;61.70;;;;;;5051123;28;20478;-57
2023/10/23 11:55:33;;;;;;;8.40;1.88;;;21.60;61.70;;;;;;5051326;28;20100;-57
2023/10/23 11:58:00;;;;;;;6.10;1.42;;;21.60;61.70;;;;;;5045851;28;20107;-55
2023/10/23 12:00:27;;;;;;;8.27;2.00;;;21.60;62.00;;;;;;5050199;28;20479;-57
2023/10/23 12:02:54;;;;;;;7.30;2.00;;;21.50;62.10;;;;;;5049054;28;20073;-58
2023/10/23 12:05:24;;;;;;;7.07;1.90;;;21.50;62.20;;;;;;5049101;28;20084;-57
2023/10/23 12:07:55;;;;;;;18.92;2.00;;;21.50;62.20;;;;;;5051263;28;20079;-57
2023/10/23 12:10:26;;;;;;;9.82;2.28;;;21.50;61.80;;;;;;5047786;28;20119;-56
2023/10/23 12:12:53;;;;;;;8.18;1.75;;;21.50;62.40;;;;;;5049931;28;20147;-55
2023/10/23 12:15:21;;;;;;;11.77;2.00;;;21.50;61.20;;;;;;5048507;28;20077;-56
2023/10/23 12:17:47;;;;;;;7.25;1.63;;;21.50;60.90;;;;;;5050612;28;20077;-57
2023/10/23 12:20:15;;;;;;;12.25;2.00;;;21.50;60.70;;;;;;5049619;28;20091;-57
2023/10/23 12:22:44;;;;;;;5.22;1.90;;;21.50;60.90;;;;;;5049681;28;20100;-57
2023/10/23 12:25:11;;;;;;;9.25;2.13;;;21.50;61.00;;;;;;5049823;28;20084;-56
2023/10/23 12:27:39;;;;;;;16.33;2.38;;;21.50;61.10;;;;;;5046502;28;20100;-56
2023/10/23 12:30:08;;;;;;;16.00;1.95;;;21.40;60.80;;;;;;5048903;28;20103;-57
2023/10/23 12:32:35;;;;;;;19.15;2.40;;;21.40;60.70;;;;;;5051494;28;20086;-58
2023/10/23 12:35:04;;;;;;;22.98;2.20;;;21.40;61.00;;;;;;5048984;28;20083;-57
2023/10/23 12:37:31;;;;;;;21.75;2.42;;;21.30;61.60;;;;;;5048391;28;20119;-56
2023/10/23 12:40:00;;;;;;;18.70;2.50;;;21.30;62.50;;;;;;5048935;28;20508;-56